createdAt,value
2018-02-11T00:00:28.390Z,50.50
2018-02-11T00:02:56.685Z,50.60
2018-02-11T00:05:24.988Z,50.60
2018-02-11T00:07:54.025Z,50.70
2018-02-11T00:10:22.334Z,50.60
2018-02-11T00:12:50.609Z,50.70
2018-02-11T00:15:19.275Z,50.70
2018-02-11T00:17:47.569Z,50.80
2018-02-11T00:20:15.846Z,50.90
2018-02-11T00:22:44.162Z,50.90
2018-02-11T00:25:12.477Z,50.90
2018-02-11T00:27:40.769Z,51.00
2018-02-11T00:30:09.048Z,51.00
2018-02-11T00:32:37.366Z,51.00
2018-02-11T00:35:05.709Z,51.00
2018-02-11T00:37:39.634Z,51.10
2018-02-11T00:40:07.921Z,51.00
2018-02-11T00:42:36.220Z,51.10
2018-02-11T00:45:04.558Z,51.10
2018-02-11T00:47:33.752Z,51.10
2018-02-11T00:50:02.060Z,51.10
2018-02-11T00:52:30.334Z,51.10
2018-02-11T00:54:58.650Z,51.10
2018-02-11T00:57:26.957Z,51.10
2018-02-11T00:59:56.005Z,51.10
2018-02-11T01:02:24.329Z,51.10
2018-02-11T01:04:52.642Z,51.40
2018-02-11T01:07:21.022Z,51.10
2018-02-11T01:09:49.302Z,51.20
2018-02-11T01:12:17.628Z,51.20
2018-02-11T01:14:47.522Z,51.10
2018-02-11T01:17:16.579Z,51.10
2018-02-11T01:19:44.923Z,51.10
2018-02-11T01:22:13.197Z,51.20
2018-02-11T01:24:41.519Z,51.20
2018-02-11T01:27:09.791Z,51.20
2018-02-11T01:29:38.086Z,51.20
2018-02-11T01:32:06.409Z,51.20
2018-02-11T01:34:35.486Z,51.10
2018-02-11T01:37:04.568Z,51.10
2018-02-11T01:39:32.871Z,51.10
2018-02-11T01:42:01.966Z,51.10
2018-02-11T01:44:30.264Z,51.20
2018-02-11T01:46:58.653Z,51.10
2018-02-11T01:49:26.938Z,51.10
2018-02-11T01:51:55.231Z,51.10
2018-02-11T01:54:23.525Z,51.10
2018-02-11T01:56:51.783Z,51.10
2018-02-11T01:59:20.092Z,51.10
2018-02-11T02:01:48.387Z,51.10
2018-02-11T02:04:16.677Z,51.20
2018-02-11T02:06:44.956Z,51.10
2018-02-11T02:09:13.271Z,51.20
2018-02-11T02:11:41.554Z,51.30
2018-02-11T02:14:09.813Z,51.20
2018-02-11T02:16:38.181Z,51.10
2018-02-11T02:19:06.449Z,51.10
2018-02-11T02:21:34.765Z,51.10
2018-02-11T02:24:03.057Z,51.20
2018-02-11T02:26:31.347Z,51.20
2018-02-11T02:28:59.636Z,51.30
2018-02-11T02:31:28.300Z,51.30
2018-02-11T02:33:56.577Z,51.20
2018-02-11T02:36:24.853Z,51.30
2018-02-11T02:38:53.173Z,51.30
2018-02-11T02:41:21.450Z,51.30
2018-02-11T02:43:49.755Z,51.30
2018-02-11T02:46:18.085Z,51.40
2018-02-11T02:48:46.645Z,51.30
2018-02-11T02:51:14.921Z,51.40
2018-02-11T02:53:43.213Z,51.40
2018-02-11T02:56:11.500Z,51.40
2018-02-11T02:58:40.537Z,51.60
2018-02-11T03:01:08.852Z,51.50
2018-02-11T03:03:47.775Z,51.50
2018-02-11T03:06:16.501Z,51.60
2018-02-11T03:08:45.521Z,51.60
2018-02-11T03:11:13.835Z,51.60
2018-02-11T03:13:42.140Z,51.60
2018-02-11T03:16:10.438Z,51.60
2018-02-11T03:18:38.760Z,52.40
2018-02-11T03:21:07.038Z,51.70
2018-02-11T03:23:35.365Z,51.70
2018-02-11T03:26:20.716Z,51.80
2018-02-11T03:28:49.415Z,51.80
2018-02-11T03:31:17.726Z,51.70
2018-02-11T03:33:46.054Z,51.70
2018-02-11T03:36:14.327Z,51.70
2018-02-11T03:38:42.583Z,51.70
2018-02-11T03:41:10.879Z,51.70
2018-02-11T03:43:39.188Z,51.80
2018-02-11T03:46:07.539Z,51.70
2018-02-11T03:48:35.815Z,51.80
2018-02-11T03:51:04.113Z,51.80
2018-02-11T03:56:30.012Z,51.70
2018-02-11T03:58:58.298Z,51.70
2018-02-11T04:01:26.595Z,51.70
2018-02-11T04:03:54.888Z,51.80
2018-02-11T04:06:23.167Z,51.80
2018-02-11T04:09:12.413Z,51.80
2018-02-11T04:11:40.689Z,51.80
2018-02-11T04:14:09.013Z,51.70
2018-02-11T04:16:38.083Z,51.80
2018-02-11T04:19:06.352Z,51.80
2018-02-11T04:21:34.656Z,51.80
2018-02-11T04:24:03.693Z,51.90
2018-02-11T04:26:32.003Z,51.80
2018-02-11T04:29:00.280Z,51.80
2018-02-11T04:31:28.581Z,51.80
2018-02-11T04:33:56.902Z,51.80
2018-02-11T04:36:25.174Z,52.00
2018-02-11T04:38:53.484Z,51.70
2018-02-11T04:41:21.821Z,51.70
2018-02-11T04:43:50.062Z,51.80
2018-02-11T04:46:18.339Z,51.70
2018-02-11T04:48:46.653Z,51.70
2018-02-11T04:51:15.716Z,51.80
2018-02-11T04:53:44.200Z,51.80
2018-02-11T04:56:13.392Z,51.80
2018-02-11T04:58:41.666Z,51.80
2018-02-11T05:01:10.451Z,51.90
2018-02-11T05:03:38.730Z,51.80
2018-02-11T05:06:07.043Z,51.80
2018-02-11T05:08:36.105Z,51.80
2018-02-11T05:11:04.420Z,51.90
2018-02-11T05:13:33.480Z,51.80
2018-02-11T05:16:01.751Z,51.80
2018-02-11T05:18:30.070Z,51.80
2018-02-11T05:20:59.121Z,51.80
2018-02-11T05:23:27.398Z,51.80
2018-02-11T05:25:55.708Z,51.80
2018-02-11T05:28:24.015Z,51.80
2018-02-11T05:30:53.093Z,51.80
2018-02-11T05:33:31.074Z,51.70
2018-02-11T05:35:59.372Z,51.60
2018-02-11T05:38:28.425Z,51.70
2018-02-11T05:40:56.724Z,51.60
2018-02-11T05:43:25.019Z,51.70
2018-02-11T05:45:54.753Z,51.80
2018-02-11T05:48:24.163Z,51.70
2018-02-11T05:50:52.477Z,51.80
2018-02-11T05:53:20.802Z,51.90
2018-02-11T05:55:49.883Z,52.00
2018-02-11T05:58:18.163Z,52.00
2018-02-11T06:00:47.246Z,52.00
2018-02-11T06:03:15.568Z,52.00
2018-02-11T06:05:43.843Z,52.00
2018-02-11T06:08:12.136Z,52.00
2018-02-11T06:10:40.432Z,51.90
2018-02-11T06:13:08.721Z,52.00
2018-02-11T06:15:37.287Z,52.00
2018-02-11T06:18:05.577Z,52.00
2018-02-11T06:20:33.864Z,52.10
2018-02-11T06:23:02.166Z,52.20
2018-02-11T06:25:30.430Z,52.30
2018-02-11T06:27:58.836Z,52.50
2018-02-11T06:30:27.879Z,52.40
2018-02-11T06:32:56.217Z,52.40
2018-02-11T06:35:25.254Z,52.50
2018-02-11T06:37:53.586Z,52.50
2018-02-11T06:40:22.635Z,52.50
2018-02-11T06:42:53.392Z,52.50
2018-02-11T06:45:21.666Z,52.50
2018-02-11T06:47:50.184Z,52.50
2018-02-11T06:50:18.443Z,52.50
2018-02-11T06:52:46.828Z,52.40
2018-02-11T06:55:15.105Z,52.40
2018-02-11T06:57:43.382Z,52.20
2018-02-11T07:00:11.780Z,52.20
2018-02-11T07:02:40.025Z,52.10
2018-02-11T07:05:08.676Z,52.10
2018-02-11T07:07:36.934Z,52.10
2018-02-11T07:10:05.194Z,52.10
2018-02-11T07:12:34.280Z,52.20
2018-02-11T07:15:03.303Z,52.20
2018-02-11T07:17:31.698Z,52.20
2018-02-11T07:19:59.984Z,52.20
2018-02-11T07:22:28.451Z,52.20
2018-02-11T07:24:56.694Z,52.20
2018-02-11T07:27:25.789Z,52.30
2018-02-11T07:29:56.205Z,52.70
2018-02-11T07:32:26.186Z,52.30
2018-02-11T07:34:55.304Z,52.30
2018-02-11T07:37:23.661Z,52.30
2018-02-11T07:39:52.345Z,52.30
2018-02-11T07:42:20.675Z,52.20
2018-02-11T07:44:48.958Z,52.20
2018-02-11T07:47:18.027Z,52.10
2018-02-11T07:49:46.307Z,52.10
2018-02-11T07:52:14.600Z,51.90
2018-02-11T07:54:42.958Z,51.90
2018-02-11T07:57:11.258Z,51.70
2018-02-11T07:59:40.291Z,51.70
2018-02-11T08:02:09.072Z,51.50
2018-02-11T08:04:37.359Z,51.50
2018-02-11T08:07:05.638Z,51.40
2018-02-11T08:09:34.033Z,51.40
2018-02-11T08:12:02.330Z,51.40
2018-02-11T08:14:30.620Z,51.40
2018-02-11T08:16:58.914Z,51.40
2018-02-11T08:19:27.345Z,51.40
2018-02-11T08:21:55.643Z,51.80
2018-02-11T08:24:23.909Z,51.00
2018-02-11T08:26:52.213Z,51.10
2018-02-11T08:29:20.575Z,51.00
2018-02-11T08:31:48.934Z,50.80
2018-02-11T08:34:17.241Z,50.60
2018-02-11T08:36:45.597Z,50.60
2018-02-11T08:39:13.887Z,50.50
2018-02-11T08:41:42.185Z,50.50
2018-02-11T08:44:10.501Z,50.40
2018-02-11T08:46:39.537Z,49.90
2018-02-11T08:49:07.815Z,49.90
2018-02-11T08:51:36.120Z,49.80
2018-02-11T08:54:04.520Z,49.70
2018-02-11T08:56:32.833Z,49.70
2018-02-11T08:59:01.110Z,49.60
2018-02-11T09:01:29.942Z,49.40
2018-02-11T09:03:58.618Z,49.30
2018-02-11T09:06:26.918Z,49.20
2018-02-11T09:08:55.202Z,49.20
2018-02-11T09:11:23.860Z,49.00
2018-02-11T09:13:52.118Z,48.60
2018-02-11T09:16:20.433Z,49.10
2018-02-11T09:18:48.738Z,49.10
2018-02-11T09:21:17.798Z,49.00
2018-02-11T09:23:46.102Z,49.00
2018-02-11T09:26:15.149Z,49.10
2018-02-11T09:28:43.750Z,48.90
2018-02-11T09:31:12.044Z,48.50
2018-02-11T09:33:40.325Z,48.70
2018-02-11T09:36:08.653Z,48.70
2018-02-11T09:38:36.920Z,48.70
2018-02-11T09:41:05.226Z,48.60
2018-02-11T09:43:33.511Z,48.30
2018-02-11T09:46:01.839Z,48.40
2018-02-11T09:48:30.893Z,48.80
2018-02-11T09:50:59.171Z,48.80
2018-02-11T09:53:27.470Z,48.70
2018-02-11T09:55:55.744Z,48.90
2018-02-11T09:58:24.066Z,48.20
2018-02-11T10:00:52.346Z,47.90
2018-02-11T10:03:20.981Z,48.40
2018-02-11T10:05:49.402Z,48.50
2018-02-11T10:08:17.660Z,48.50
2018-02-11T10:10:46.822Z,47.90
2018-02-11T10:13:15.104Z,47.90
2018-02-11T10:15:43.436Z,48.10
2018-02-11T10:18:11.737Z,48.00
2018-02-11T10:20:40.030Z,47.70
2018-02-11T10:23:08.318Z,47.80
2018-02-11T10:25:37.031Z,47.80
2018-02-11T10:28:06.083Z,47.70
2018-02-11T10:30:34.366Z,47.70
2018-02-11T10:33:02.694Z,47.30
2018-02-11T10:35:31.743Z,46.80
2018-02-11T10:38:00.047Z,46.80
2018-02-11T10:40:28.333Z,47.10
2018-02-11T10:42:57.424Z,46.80
2018-02-11T10:45:25.701Z,46.70
2018-02-11T10:47:54.012Z,47.10
2018-02-11T10:50:23.084Z,45.60
2018-02-11T10:52:51.416Z,45.50
2018-02-11T10:55:19.753Z,44.60
2018-02-11T10:57:48.800Z,44.80
2018-02-11T11:00:17.132Z,44.80
2018-02-11T11:02:46.172Z,45.00
2018-02-11T11:05:14.818Z,44.90
2018-02-11T11:07:43.113Z,45.10
2018-02-11T11:10:11.406Z,44.90
2018-02-11T11:12:39.729Z,44.80
2018-02-11T11:15:08.035Z,44.80
2018-02-11T11:17:36.342Z,44.90
2018-02-11T11:20:08.261Z,44.70
2018-02-11T11:22:37.490Z,45.00
2018-02-11T11:25:05.839Z,45.00
2018-02-11T11:27:34.925Z,45.10
2018-02-11T11:30:03.996Z,45.80
2018-02-11T11:32:32.294Z,45.10
2018-02-11T11:35:01.791Z,45.40
2018-02-11T11:37:31.642Z,44.40
2018-02-11T11:40:01.527Z,44.50
2018-02-11T11:42:29.823Z,44.60
2018-02-11T11:44:58.933Z,44.50
2018-02-11T11:47:28.033Z,44.20
2018-02-11T11:49:57.175Z,44.50
2018-02-11T11:52:25.481Z,44.50
2018-02-11T11:54:53.776Z,44.50
2018-02-11T11:57:22.890Z,45.00
2018-02-11T11:59:51.197Z,44.50
2018-02-11T12:02:20.275Z,44.60
2018-02-11T12:04:48.575Z,44.70
2018-02-11T12:07:16.901Z,44.80
2018-02-11T12:09:45.993Z,45.00
2018-02-11T12:12:14.272Z,44.90
2018-02-11T12:14:42.582Z,45.00
2018-02-11T12:17:11.649Z,44.60
2018-02-11T12:19:40.751Z,45.10
2018-02-11T12:22:09.808Z,44.50
2018-02-11T12:24:38.120Z,44.50
2018-02-11T12:27:06.394Z,44.60
2018-02-11T12:29:35.467Z,44.90
2018-02-11T12:32:03.797Z,44.80
2018-02-11T12:34:32.883Z,45.00
2018-02-11T12:37:01.225Z,45.00
2018-02-11T12:39:29.547Z,45.20
2018-02-11T12:41:57.845Z,45.20
2018-02-11T12:44:26.139Z,45.00
2018-02-11T12:46:55.282Z,44.90
2018-02-11T12:49:23.605Z,44.60
2018-02-11T12:51:51.908Z,44.50
2018-02-11T12:54:20.214Z,44.60
2018-02-11T12:56:48.750Z,44.60
2018-02-11T12:59:17.050Z,44.30
2018-02-11T13:01:45.408Z,44.10
2018-02-11T13:04:14.615Z,44.40
2018-02-11T13:06:42.985Z,44.30
2018-02-11T13:09:11.286Z,44.30
2018-02-11T13:11:43.419Z,44.30
2018-02-11T13:14:11.706Z,43.90
2018-02-11T13:16:40.004Z,43.80
2018-02-11T13:19:08.334Z,43.60
2018-02-11T13:21:37.356Z,44.00
2018-02-11T13:24:05.977Z,44.00
2018-02-11T13:26:34.279Z,44.00
2018-02-11T13:29:03.358Z,43.90
2018-02-11T13:31:32.361Z,44.00
2018-02-11T13:34:01.422Z,43.90
2018-02-11T13:36:29.801Z,43.90
2018-02-11T13:38:58.102Z,44.00
2018-02-11T13:41:26.377Z,43.80
2018-02-11T13:43:54.989Z,43.80
2018-02-11T13:46:23.285Z,43.70
2018-02-11T13:48:51.569Z,43.90
2018-02-11T13:51:19.906Z,44.70
2018-02-11T13:53:48.191Z,44.20
2018-02-11T13:56:16.785Z,44.30
2018-02-11T13:58:45.077Z,44.60
2018-02-11T14:01:14.146Z,45.00
2018-02-11T14:03:42.493Z,45.00
2018-02-11T14:06:10.765Z,45.30
2018-02-11T14:08:39.356Z,45.50
2018-02-11T14:11:07.708Z,45.80
2018-02-11T14:13:35.953Z,46.00
2018-02-11T14:16:04.297Z,46.50
2018-02-11T14:18:32.597Z,46.40
2018-02-11T14:21:01.189Z,46.50
2018-02-11T14:23:29.457Z,46.70
2018-02-11T14:25:57.780Z,46.80
2018-02-11T14:28:26.860Z,47.10
2018-02-11T14:30:55.896Z,47.30
2018-02-11T14:33:24.487Z,47.30
2018-02-11T14:35:52.753Z,48.20
2018-02-11T14:38:21.043Z,48.00
2018-02-11T14:40:49.625Z,48.20
2018-02-11T14:43:18.468Z,48.50
2018-02-11T14:45:47.580Z,48.80
2018-02-11T14:48:16.648Z,49.10
2018-02-11T14:50:44.932Z,49.10
2018-02-11T14:53:14.334Z,49.90
2018-02-11T14:55:42.615Z,49.70
2018-02-11T14:58:10.897Z,50.20
2018-02-11T15:00:39.576Z,50.50
2018-02-11T15:03:08.616Z,51.30
2018-02-11T15:05:36.879Z,51.40
2018-02-11T15:08:05.182Z,51.50
2018-02-11T15:10:33.453Z,51.60
2018-02-11T15:13:01.850Z,52.00
2018-02-11T15:15:30.146Z,52.10
2018-02-11T15:17:58.766Z,52.30
2018-02-11T15:20:28.101Z,52.80
2018-02-11T15:22:57.268Z,53.10
2018-02-11T15:25:26.367Z,53.50
2018-02-11T15:27:54.638Z,53.50
2018-02-11T15:30:23.982Z,53.70
2018-02-11T15:32:52.258Z,53.80
2018-02-11T15:35:20.543Z,53.80
2018-02-11T15:37:48.858Z,53.90
2018-02-11T15:40:17.177Z,54.00
2018-02-11T15:42:45.856Z,54.00
2018-02-11T15:45:14.882Z,54.20
2018-02-11T15:47:43.216Z,54.20
2018-02-11T15:50:11.836Z,54.10
2018-02-11T15:52:40.137Z,54.30
2018-02-11T15:55:08.445Z,54.40
2018-02-11T15:57:37.531Z,54.60
2018-02-11T16:00:05.826Z,55.20
2018-02-11T16:02:35.229Z,54.70
2018-02-11T16:05:04.308Z,54.70
2018-02-11T16:07:32.595Z,54.80
2018-02-11T16:10:02.832Z,55.00
2018-02-11T16:12:31.888Z,55.10
2018-02-11T16:15:00.607Z,55.10
2018-02-11T16:17:28.897Z,55.20
2018-02-11T16:19:58.177Z,55.30
2018-02-11T16:22:27.270Z,55.50
2018-02-11T16:24:55.560Z,55.50
2018-02-11T16:27:24.166Z,55.60
2018-02-11T16:29:52.546Z,55.60
2018-02-11T16:32:20.756Z,55.70
2018-02-11T16:34:49.101Z,55.80
2018-02-11T16:37:17.438Z,55.80
2018-02-11T16:39:45.770Z,55.90
2018-02-11T16:42:14.314Z,56.60
2018-02-11T16:44:44.154Z,55.90
2018-02-11T16:47:13.231Z,55.80
2018-02-11T16:49:41.600Z,55.90
2018-02-11T16:52:09.887Z,55.80
2018-02-11T16:54:38.218Z,55.80
2018-02-11T16:57:06.585Z,55.70
2018-02-11T16:59:35.183Z,55.70
2018-02-11T17:02:03.527Z,55.70
2018-02-11T17:04:32.579Z,55.60
2018-02-11T17:07:01.799Z,55.50
2018-02-11T17:09:30.100Z,55.50
2018-02-11T17:11:58.466Z,55.40
2018-02-11T17:14:26.981Z,55.50
2018-02-11T17:16:55.617Z,55.30
2018-02-11T17:19:23.929Z,55.30
2018-02-11T17:21:53.072Z,55.20
2018-02-11T17:24:22.258Z,55.20
2018-02-11T17:26:50.703Z,55.20
2018-02-11T17:29:19.446Z,55.10
2018-02-11T17:31:47.805Z,55.00
2018-02-11T17:34:16.225Z,55.00
2018-02-11T17:36:44.529Z,55.00
2018-02-11T17:39:12.833Z,55.00
2018-02-11T17:41:41.406Z,55.00
2018-02-11T17:44:10.570Z,55.00
2018-02-11T17:46:39.653Z,55.20
2018-02-11T17:49:08.721Z,54.80
2018-02-11T17:51:37.008Z,54.80
2018-02-11T17:54:05.639Z,54.80
2018-02-11T17:56:33.979Z,54.80
2018-02-11T17:59:02.652Z,54.90
2018-02-11T18:01:30.986Z,54.90
2018-02-11T18:04:00.183Z,54.90
2018-02-11T18:06:29.504Z,54.70
2018-02-11T18:08:57.815Z,54.70
2018-02-11T18:11:26.089Z,54.60
2018-02-11T18:13:54.405Z,54.40
2018-02-11T18:16:22.680Z,54.30
2018-02-11T18:18:51.383Z,54.20
2018-02-11T18:21:19.653Z,54.20
2018-02-11T18:23:48.729Z,54.00
2018-02-11T18:26:17.062Z,54.00
2018-02-11T18:28:45.412Z,54.00
2018-02-11T18:31:13.943Z,54.00
2018-02-11T18:33:42.218Z,53.80
2018-02-11T18:36:10.473Z,54.30
2018-02-11T18:38:39.609Z,53.60
2018-02-11T18:41:08.690Z,54.20
2018-02-11T18:43:37.322Z,53.70
2018-02-11T18:46:05.606Z,53.70
2018-02-11T18:48:34.689Z,53.20
2018-02-11T18:51:03.086Z,53.60
2018-02-11T18:53:31.402Z,53.50
2018-02-11T18:56:00.170Z,53.50
2018-02-11T18:58:28.489Z,53.40
2018-02-11T19:00:56.816Z,53.40
2018-02-11T19:03:25.145Z,53.40
2018-02-11T19:05:53.480Z,53.50
2018-02-11T19:08:22.181Z,53.40
2018-02-11T19:10:51.247Z,53.40
2018-02-11T19:13:20.407Z,53.40
2018-02-11T19:15:48.766Z,53.40
2018-02-11T19:18:17.032Z,54.00
2018-02-11T19:20:45.722Z,53.40
2018-02-11T19:23:14.062Z,53.40
2018-02-11T19:25:42.332Z,53.40
2018-02-11T19:28:10.632Z,53.40
2018-02-11T19:30:39.727Z,53.20
2018-02-11T19:33:09.246Z,53.20
2018-02-11T19:35:37.695Z,53.20
2018-02-11T19:38:06.912Z,53.20
2018-02-11T19:40:35.396Z,53.20
2018-02-11T19:43:03.739Z,53.10
2018-02-11T19:45:32.357Z,52.90
2018-02-11T19:48:00.680Z,53.00
2018-02-11T19:50:29.231Z,53.10
2018-02-11T19:52:57.920Z,53.10
2018-02-11T19:55:27.004Z,53.00
2018-02-11T19:57:56.096Z,52.90
2018-02-11T20:00:25.303Z,52.90
2018-02-11T20:02:54.552Z,52.90
2018-02-11T20:05:22.946Z,53.00
2018-02-11T20:07:51.837Z,53.00
2018-02-11T20:10:21.340Z,53.00
2018-02-11T20:12:49.771Z,52.90
2018-02-11T20:15:19.245Z,53.10
2018-02-11T20:17:47.765Z,53.00
2018-02-11T20:20:16.388Z,52.90
2018-02-11T20:22:45.004Z,52.80
2018-02-11T20:25:13.292Z,52.70
2018-02-11T20:27:41.603Z,52.80
2018-02-11T20:30:09.952Z,52.70
2018-02-11T20:32:39.103Z,52.80
2018-02-11T20:35:07.839Z,52.80
2018-02-11T20:37:36.155Z,52.90
2018-02-11T20:40:04.497Z,52.90
2018-02-11T20:42:33.081Z,52.90
2018-02-11T20:45:01.423Z,52.90
2018-02-11T20:47:29.809Z,53.20
2018-02-11T20:49:58.943Z,52.80
2018-02-11T20:52:27.998Z,52.80
2018-02-11T20:54:56.625Z,52.80
2018-02-11T20:57:24.926Z,52.90
2018-02-11T20:59:53.231Z,52.80
2018-02-11T21:02:21.561Z,52.70
2018-02-11T21:04:50.646Z,52.70
2018-02-11T21:07:20.269Z,52.70
2018-02-11T21:09:48.625Z,52.80
2018-02-11T21:12:17.687Z,52.70
2018-02-11T21:14:46.072Z,52.60
2018-02-11T21:17:14.338Z,52.60
2018-02-11T21:19:43.169Z,52.50
2018-02-11T21:22:11.526Z,52.60
2018-02-11T21:24:40.506Z,52.60
2018-02-11T21:27:09.177Z,52.40
2018-02-11T21:29:37.439Z,52.50
2018-02-11T21:32:05.729Z,52.50
2018-02-11T21:34:35.563Z,52.50
2018-02-11T21:37:03.853Z,52.60
2018-02-11T21:39:32.453Z,52.50
2018-02-11T21:42:01.012Z,52.40
2018-02-11T21:44:29.459Z,52.50
2018-02-11T21:46:57.789Z,52.50
2018-02-11T21:49:27.218Z,52.50
2018-02-11T21:51:55.807Z,53.00
2018-02-11T21:54:24.174Z,52.50
2018-02-11T21:56:52.454Z,52.40
2018-02-11T21:59:21.067Z,52.50
2018-02-11T22:01:50.146Z,52.50
2018-02-11T22:04:19.239Z,52.60
2018-02-11T22:06:47.591Z,52.60
2018-02-11T22:09:15.871Z,52.60
2018-02-11T22:11:44.541Z,52.80
2018-02-11T22:14:13.227Z,53.00
2018-02-11T22:16:41.770Z,53.30
2018-02-11T22:19:10.916Z,53.80
2018-02-11T22:21:39.192Z,53.70
2018-02-11T22:24:07.840Z,54.00
2018-02-11T22:26:36.874Z,55.00
2018-02-11T22:29:05.210Z,54.40
2018-02-11T22:31:34.590Z,55.10
2018-02-11T22:34:02.927Z,55.10
2018-02-11T22:36:31.239Z,55.30
2018-02-11T22:38:59.930Z,55.40
2018-02-11T22:41:29.004Z,55.80
2018-02-11T22:43:57.290Z,55.90
2018-02-11T22:46:25.858Z,56.00
2018-02-11T22:48:54.140Z,56.10
2018-02-11T22:51:22.449Z,56.20
2018-02-11T22:53:51.158Z,56.30
2018-02-11T22:56:19.481Z,56.50
2018-02-11T22:58:47.755Z,56.60
2018-02-11T23:01:16.131Z,56.80
2018-02-11T23:03:44.417Z,56.90
2018-02-11T23:06:12.994Z,56.90
2018-02-11T23:08:41.277Z,57.10
2018-02-11T23:11:09.536Z,57.20
2018-02-11T23:13:37.845Z,57.30
2018-02-11T23:16:06.135Z,57.30
2018-02-11T23:18:34.724Z,57.30
2018-02-11T23:21:03.007Z,57.30
2018-02-11T23:23:31.310Z,57.20
2018-02-11T23:26:00.378Z,57.20
2018-02-11T23:28:28.683Z,57.10
2018-02-11T23:30:57.271Z,57.10
2018-02-11T23:33:26.294Z,57.00
2018-02-11T23:35:54.594Z,57.00
2018-02-11T23:38:22.889Z,57.00
2018-02-11T23:40:51.225Z,57.10
2018-02-11T23:43:19.829Z,57.00
2018-02-11T23:45:48.198Z,57.10
2018-02-11T23:48:16.452Z,57.00
2018-02-11T23:50:44.800Z,57.00
2018-02-11T23:53:13.283Z,57.00
2018-02-11T23:55:41.817Z,57.10
2018-02-11T23:58:10.103Z,56.90
